sensor_id;sensor_type;location;lat;lon;timestamp;temperature;humidity
23803;DHT22;12082;51.786;6.018;2024-01-30T00:01:35;8.30;99.90
23803;DHT22;12082;51.786;6.018;2024-01-30T00:04:01;8.30;99.90
23803;DHT22;12082;51.786;6.018;2024-01-30T00:06:27;8.40;99.90
23803;DHT22;12082;51.786;6.018;2024-01-30T00:08:53;8.30;99.90
23803;DHT22;12082;51.786;6.018;2024-01-30T00:11:19;8.20;99.90
23803;DHT22;12082;51.786;6.018;2024-01-30T00:13:44;8.20;99.90
23803;DHT22;12082;51.786;6.018;2024-01-30T00:16:23;8.20;99.90
23803;DHT22;12082;51.786;6.018;2024-01-30T00:18:52;8.20;99.90
23803;DHT22;12082;51.786;6.018;2024-01-30T00:21:18;8.00;99.90
23803;DHT22;12082;51.786;6.018;2024-01-30T00:23:44;8.20;99.90
23803;DHT22;12082;51.786;6.018;2024-01-30T00:26:09;8.20;99.90
23803;DHT22;12082;51.786;6.018;2024-01-30T00:28:35;8.20;99.90
23803;DHT22;12082;51.786;6.018;2024-01-30T00:31:00;8.10;99.90
23803;DHT22;12082;51.786;6.018;2024-01-30T00:33:26;8.30;99.90
23803;DHT22;12082;51.786;6.018;2024-01-30T00:35:52;8.20;99.90
23803;DHT22;12082;51.786;6.018;2024-01-30T00:38:17;8.10;99.90
23803;DHT22;12082;51.786;6.018;2024-01-30T00:40:43;8.20;99.90
23803;DHT22;12082;51.786;6.018;2024-01-30T00:43:08;8.30;99.90
23803;DHT22;12082;51.786;6.018;2024-01-30T00:45:34;8.30;99.90
23803;DHT22;12082;51.786;6.018;2024-01-30T00:47:59;8.30;99.90
23803;DHT22;12082;51.786;6.018;2024-01-30T00:50:25;8.20;99.90
23803;DHT22;12082;51.786;6.018;2024-01-30T00:52:50;8.30;99.90
23803;DHT22;12082;51.786;6.018;2024-01-30T00:55:16;8.40;99.90
23803;DHT22;12082;51.786;6.018;2024-01-30T00:57:42;8.40;99.90
23803;DHT22;12082;51.786;6.018;2024-01-30T01:00:08;8.40;99.90
23803;DHT22;12082;51.786;6.018;2024-01-30T01:02:35;8.40;99.90
23803;DHT22;12082;51.786;6.018;2024-01-30T01:05:01;8.40;99.90
23803;DHT22;12082;51.786;6.018;2024-01-30T01:07:27;8.40;99.90
23803;DHT22;12082;51.786;6.018;2024-01-30T01:09:52;8.30;99.90
23803;DHT22;12082;51.786;6.018;2024-01-30T01:12:18;8.30;99.90
23803;DHT22;12082;51.786;6.018;2024-01-30T01:14:43;8.40;99.90
23803;DHT22;12082;51.786;6.018;2024-01-30T01:17:09;8.40;99.90
23803;DHT22;12082;51.786;6.018;2024-01-30T01:19:34;8.50;99.90
23803;DHT22;12082;51.786;6.018;2024-01-30T01:22:00;8.50;99.90
23803;DHT22;12082;51.786;6.018;2024-01-30T01:24:26;8.50;99.90
23803;DHT22;12082;51.786;6.018;2024-01-30T01:26:51;8.60;99.90
23803;DHT22;12082;51.786;6.018;2024-01-30T01:29:17;8.50;99.90
23803;DHT22;12082;51.786;6.018;2024-01-30T01:31:42;8.60;99.90
23803;DHT22;12082;51.786;6.018;2024-01-30T01:34:11;8.50;99.90
23803;DHT22;12082;51.786;6.018;2024-01-30T01:36:37;8.60;99.90
23803;DHT22;12082;51.786;6.018;2024-01-30T01:39:03;8.60;99.90
23803;DHT22;12082;51.786;6.018;2024-01-30T01:41:32;8.50;99.90
23803;DHT22;12082;51.786;6.018;2024-01-30T01:43:58;8.60;99.90
23803;DHT22;12082;51.786;6.018;2024-01-30T01:46:27;8.60;99.90
23803;DHT22;12082;51.786;6.018;2024-01-30T01:48:53;8.60;99.90
23803;DHT22;12082;51.786;6.018;2024-01-30T01:51:20;8.50;99.90
23803;DHT22;12082;51.786;6.018;2024-01-30T01:53:46;8.60;99.90
23803;DHT22;12082;51.786;6.018;2024-01-30T01:56:12;8.60;99.90
23803;DHT22;12082;51.786;6.018;2024-01-30T01:58:38;8.60;99.90
23803;DHT22;12082;51.786;6.018;2024-01-30T02:01:04;8.60;99.90
23803;DHT22;12082;51.786;6.018;2024-01-30T02:03:30;8.60;99.90
23803;DHT22;12082;51.786;6.018;2024-01-30T02:05:56;8.60;99.90
23803;DHT22;12082;51.786;6.018;2024-01-30T02:08:23;8.50;99.90
23803;DHT22;12082;51.786;6.018;2024-01-30T02:10:49;8.60;99.90
23803;DHT22;12082;51.786;6.018;2024-01-30T02:13:14;8.60;99.90
23803;DHT22;12082;51.786;6.018;2024-01-30T02:15:40;8.60;99.90
23803;DHT22;12082;51.786;6.018;2024-01-30T02:18:06;8.50;99.90
23803;DHT22;12082;51.786;6.018;2024-01-30T02:20:31;8.60;99.90
23803;DHT22;12082;51.786;6.018;2024-01-30T02:23:01;8.60;99.90
23803;DHT22;12082;51.786;6.018;2024-01-30T02:25:35;8.50;99.90
23803;DHT22;12082;51.786;6.018;2024-01-30T02:28:01;8.60;99.90
23803;DHT22;12082;51.786;6.018;2024-01-30T02:30:26;9.10;99.90
23803;DHT22;12082;51.786;6.018;2024-01-30T02:32:52;8.60;99.90
23803;DHT22;12082;51.786;6.018;2024-01-30T02:35:17;8.60;99.90
23803;DHT22;12082;51.786;6.018;2024-01-30T02:37:43;8.50;99.90
23803;DHT22;12082;51.786;6.018;2024-01-30T02:40:09;8.50;99.90
23803;DHT22;12082;51.786;6.018;2024-01-30T02:42:34;8.50;99.90
23803;DHT22;12082;51.786;6.018;2024-01-30T02:45:00;8.60;99.90
23803;DHT22;12082;51.786;6.018;2024-01-30T02:47:25;8.50;99.90
23803;DHT22;12082;51.786;6.018;2024-01-30T02:49:51;8.60;99.90
23803;DHT22;12082;51.786;6.018;2024-01-30T02:52:17;8.50;99.90
23803;DHT22;12082;51.786;6.018;2024-01-30T02:54:43;8.50;99.90
23803;DHT22;12082;51.786;6.018;2024-01-30T02:57:09;8.50;99.90
23803;DHT22;12082;51.786;6.018;2024-01-30T02:59:34;8.40;99.90
23803;DHT22;12082;51.786;6.018;2024-01-30T03:02:01;8.40;99.90
23803;DHT22;12082;51.786;6.018;2024-01-30T03:04:27;8.40;99.90
23803;DHT22;12082;51.786;6.018;2024-01-30T03:06:52;8.40;99.90
23803;DHT22;12082;51.786;6.018;2024-01-30T03:09:18;8.30;99.90
23803;DHT22;12082;51.786;6.018;2024-01-30T03:11:43;8.30;99.90
23803;DHT22;12082;51.786;6.018;2024-01-30T03:14:09;8.50;99.90
23803;DHT22;12082;51.786;6.018;2024-01-30T03:16:37;8.50;99.90
23803;DHT22;12082;51.786;6.018;2024-01-30T03:19:04;8.50;99.90
23803;DHT22;12082;51.786;6.018;2024-01-30T03:21:29;8.40;99.90
23803;DHT22;12082;51.786;6.018;2024-01-30T03:23:55;7.90;99.90
23803;DHT22;12082;51.786;6.018;2024-01-30T03:26:20;8.50;99.90
23803;DHT22;12082;51.786;6.018;2024-01-30T03:28:46;8.60;99.90
23803;DHT22;12082;51.786;6.018;2024-01-30T03:31:15;8.50;99.90
23803;DHT22;12082;51.786;6.018;2024-01-30T03:33:41;8.60;99.90
23803;DHT22;12082;51.786;6.018;2024-01-30T03:36:08;8.60;99.90
23803;DHT22;12082;51.786;6.018;2024-01-30T03:38:34;8.60;99.90
23803;DHT22;12082;51.786;6.018;2024-01-30T03:41:00;8.50;99.90
23803;DHT22;12082;51.786;6.018;2024-01-30T03:43:27;8.50;99.90
23803;DHT22;12082;51.786;6.018;2024-01-30T03:45:53;8.50;99.90
23803;DHT22;12082;51.786;6.018;2024-01-30T03:48:19;8.50;99.90
23803;DHT22;12082;51.786;6.018;2024-01-30T03:50:45;8.60;99.90
23803;DHT22;12082;51.786;6.018;2024-01-30T03:53:10;8.60;99.90
23803;DHT22;12082;51.786;6.018;2024-01-30T03:55:36;8.60;99.90
23803;DHT22;12082;51.786;6.018;2024-01-30T03:58:01;8.50;99.90
23803;DHT22;12082;51.786;6.018;2024-01-30T04:00:27;8.60;99.90
23803;DHT22;12082;51.786;6.018;2024-01-30T04:02:53;8.60;99.90
23803;DHT22;12082;51.786;6.018;2024-01-30T04:05:18;8.60;99.90
23803;DHT22;12082;51.786;6.018;2024-01-30T04:07:44;8.60;99.90
23803;DHT22;12082;51.786;6.018;2024-01-30T04:10:10;8.60;99.90
23803;DHT22;12082;51.786;6.018;2024-01-30T04:12:36;8.70;99.90
23803;DHT22;12082;51.786;6.018;2024-01-30T04:15:02;8.70;99.90
23803;DHT22;12082;51.786;6.018;2024-01-30T04:17:28;8.80;99.90
23803;DHT22;12082;51.786;6.018;2024-01-30T04:19:54;8.70;99.90
23803;DHT22;12082;51.786;6.018;2024-01-30T04:22:20;8.80;99.90
23803;DHT22;12082;51.786;6.018;2024-01-30T04:24:46;8.80;99.90
23803;DHT22;12082;51.786;6.018;2024-01-30T04:27:12;8.80;99.90
23803;DHT22;12082;51.786;6.018;2024-01-30T04:29:37;8.80;99.90
23803;DHT22;12082;51.786;6.018;2024-01-30T04:32:03;8.70;99.90
23803;DHT22;12082;51.786;6.018;2024-01-30T04:34:29;8.90;99.90
23803;DHT22;12082;51.786;6.018;2024-01-30T04:36:54;8.80;99.90
23803;DHT22;12082;51.786;6.018;2024-01-30T04:39:20;8.80;99.90
23803;DHT22;12082;51.786;6.018;2024-01-30T04:41:45;8.90;99.90
23803;DHT22;12082;51.786;6.018;2024-01-30T04:44:11;8.80;99.90
23803;DHT22;12082;51.786;6.018;2024-01-30T04:46:36;8.90;99.90
23803;DHT22;12082;51.786;6.018;2024-01-30T04:49:02;8.90;99.90
23803;DHT22;12082;51.786;6.018;2024-01-30T04:51:28;8.80;99.90
23803;DHT22;12082;51.786;6.018;2024-01-30T04:53:55;8.80;99.90
23803;DHT22;12082;51.786;6.018;2024-01-30T04:56:20;8.80;99.90
23803;DHT22;12082;51.786;6.018;2024-01-30T04:58:46;8.80;99.90
23803;DHT22;12082;51.786;6.018;2024-01-30T05:01:18;8.70;99.90
23803;DHT22;12082;51.786;6.018;2024-01-30T05:03:43;8.90;99.90
23803;DHT22;12082;51.786;6.018;2024-01-30T05:06:09;8.80;99.90
23803;DHT22;12082;51.786;6.018;2024-01-30T05:08:35;8.90;99.90
23803;DHT22;12082;51.786;6.018;2024-01-30T05:11:05;8.90;99.90
23803;DHT22;12082;51.786;6.018;2024-01-30T05:13:31;8.90;99.90
23803;DHT22;12082;51.786;6.018;2024-01-30T05:15:56;8.90;99.90
23803;DHT22;12082;51.786;6.018;2024-01-30T05:18:22;8.90;99.90
23803;DHT22;12082;51.786;6.018;2024-01-30T05:20:47;8.90;99.90
23803;DHT22;12082;51.786;6.018;2024-01-30T05:23:13;8.90;99.90
23803;DHT22;12082;51.786;6.018;2024-01-30T05:25:39;8.90;99.90
23803;DHT22;12082;51.786;6.018;2024-01-30T05:28:05;8.90;99.90
23803;DHT22;12082;51.786;6.018;2024-01-30T05:30:30;9.00;99.90
23803;DHT22;12082;51.786;6.018;2024-01-30T05:32:56;8.90;99.90
23803;DHT22;12082;51.786;6.018;2024-01-30T05:35:22;9.00;99.90
23803;DHT22;12082;51.786;6.018;2024-01-30T05:37:50;8.90;99.90
23803;DHT22;12082;51.786;6.018;2024-01-30T05:40:16;9.00;99.90
23803;DHT22;12082;51.786;6.018;2024-01-30T05:42:42;9.10;99.90
23803;DHT22;12082;51.786;6.018;2024-01-30T05:45:08;9.10;99.90
23803;DHT22;12082;51.786;6.018;2024-01-30T05:47:37;9.10;99.90
23803;DHT22;12082;51.786;6.018;2024-01-30T05:50:02;9.10;99.90
23803;DHT22;12082;51.786;6.018;2024-01-30T05:52:28;9.10;99.90
23803;DHT22;12082;51.786;6.018;2024-01-30T05:54:54;9.00;99.90
23803;DHT22;12082;51.786;6.018;2024-01-30T05:57:20;9.00;99.90
23803;DHT22;12082;51.786;6.018;2024-01-30T05:59:45;9.00;99.90
23803;DHT22;12082;51.786;6.018;2024-01-30T06:02:13;9.10;99.90
23803;DHT22;12082;51.786;6.018;2024-01-30T06:04:39;9.00;99.90
23803;DHT22;12082;51.786;6.018;2024-01-30T06:07:04;9.00;99.90
23803;DHT22;12082;51.786;6.018;2024-01-30T06:09:31;9.00;99.90
23803;DHT22;12082;51.786;6.018;2024-01-30T06:11:57;9.10;99.90
23803;DHT22;12082;51.786;6.018;2024-01-30T06:14:23;9.00;99.90
23803;DHT22;12082;51.786;6.018;2024-01-30T06:16:49;9.00;99.90
23803;DHT22;12082;51.786;6.018;2024-01-30T06:19:15;9.00;99.90
23803;DHT22;12082;51.786;6.018;2024-01-30T06:21:41;9.00;99.90
23803;DHT22;12082;51.786;6.018;2024-01-30T06:24:07;9.00;99.90
23803;DHT22;12082;51.786;6.018;2024-01-30T06:26:33;9.00;99.90
23803;DHT22;12082;51.786;6.018;2024-01-30T06:28:59;9.00;99.90
23803;DHT22;12082;51.786;6.018;2024-01-30T06:31:24;9.10;99.90
23803;DHT22;12082;51.786;6.018;2024-01-30T06:33:50;8.90;99.90
23803;DHT22;12082;51.786;6.018;2024-01-30T06:36:16;9.00;99.90
23803;DHT22;12082;51.786;6.018;2024-01-30T06:38:41;9.00;99.90
23803;DHT22;12082;51.786;6.018;2024-01-30T06:41:07;9.00;99.90
23803;DHT22;12082;51.786;6.018;2024-01-30T06:43:33;9.10;99.90
23803;DHT22;12082;51.786;6.018;2024-01-30T06:45:58;9.10;99.90
23803;DHT22;12082;51.786;6.018;2024-01-30T06:48:25;9.10;99.90
23803;DHT22;12082;51.786;6.018;2024-01-30T06:50:53;9.20;99.90
23803;DHT22;12082;51.786;6.018;2024-01-30T06:53:19;9.10;99.90
23803;DHT22;12082;51.786;6.018;2024-01-30T06:55:45;9.20;99.90
23803;DHT22;12082;51.786;6.018;2024-01-30T06:58:11;9.30;99.90
23803;DHT22;12082;51.786;6.018;2024-01-30T07:00:37;9.30;99.90
23803;DHT22;12082;51.786;6.018;2024-01-30T07:03:02;9.30;99.90
23803;DHT22;12082;51.786;6.018;2024-01-30T07:05:28;9.40;99.90
23803;DHT22;12082;51.786;6.018;2024-01-30T07:07:53;9.40;99.90
23803;DHT22;12082;51.786;6.018;2024-01-30T07:10:19;9.40;99.90
23803;DHT22;12082;51.786;6.018;2024-01-30T07:12:45;9.30;99.90
23803;DHT22;12082;51.786;6.018;2024-01-30T07:15:10;9.30;99.90
23803;DHT22;12082;51.786;6.018;2024-01-30T07:17:36;9.50;99.90
23803;DHT22;12082;51.786;6.018;2024-01-30T07:20:02;9.30;99.90
23803;DHT22;12082;51.786;6.018;2024-01-30T07:22:31;9.40;99.90
23803;DHT22;12082;51.786;6.018;2024-01-30T07:24:57;9.40;99.90
23803;DHT22;12082;51.786;6.018;2024-01-30T07:27:22;9.40;99.90
23803;DHT22;12082;51.786;6.018;2024-01-30T07:29:48;9.30;99.90
23803;DHT22;12082;51.786;6.018;2024-01-30T07:32:14;9.30;99.90
23803;DHT22;12082;51.786;6.018;2024-01-30T07:34:39;9.40;99.90
23803;DHT22;12082;51.786;6.018;2024-01-30T07:37:05;9.30;99.90
23803;DHT22;12082;51.786;6.018;2024-01-30T07:39:34;9.70;99.90
23803;DHT22;12082;51.786;6.018;2024-01-30T07:41:59;9.40;99.90
23803;DHT22;12082;51.786;6.018;2024-01-30T07:44:25;9.30;99.90
23803;DHT22;12082;51.786;6.018;2024-01-30T07:46:51;9.40;99.90
23803;DHT22;12082;51.786;6.018;2024-01-30T07:49:16;9.30;99.90
23803;DHT22;12082;51.786;6.018;2024-01-30T07:51:42;9.40;99.90
23803;DHT22;12082;51.786;6.018;2024-01-30T07:54:08;9.30;99.90
23803;DHT22;12082;51.786;6.018;2024-01-30T07:56:34;9.50;99.90
23803;DHT22;12082;51.786;6.018;2024-01-30T07:58:59;9.40;99.90
23803;DHT22;12082;51.786;6.018;2024-01-30T08:01:25;9.40;99.90
23803;DHT22;12082;51.786;6.018;2024-01-30T08:03:51;9.50;99.90
23803;DHT22;12082;51.786;6.018;2024-01-30T08:06:17;9.60;99.90
23803;DHT22;12082;51.786;6.018;2024-01-30T08:08:42;9.50;99.90
23803;DHT22;12082;51.786;6.018;2024-01-30T08:11:08;9.50;99.90
23803;DHT22;12082;51.786;6.018;2024-01-30T08:13:34;9.50;99.90
23803;DHT22;12082;51.786;6.018;2024-01-30T08:15:59;9.60;99.90
23803;DHT22;12082;51.786;6.018;2024-01-30T08:18:25;9.60;99.90
23803;DHT22;12082;51.786;6.018;2024-01-30T08:20:50;9.50;99.90
23803;DHT22;12082;51.786;6.018;2024-01-30T08:23:16;9.60;99.90
23803;DHT22;12082;51.786;6.018;2024-01-30T08:25:41;9.60;99.90
23803;DHT22;12082;51.786;6.018;2024-01-30T08:28:07;9.60;99.90
23803;DHT22;12082;51.786;6.018;2024-01-30T08:30:33;9.50;99.90
23803;DHT22;12082;51.786;6.018;2024-01-30T08:32:59;9.90;99.90
23803;DHT22;12082;51.786;6.018;2024-01-30T08:35:24;9.60;99.90
23803;DHT22;12082;51.786;6.018;2024-01-30T08:37:50;9.70;99.90
23803;DHT22;12082;51.786;6.018;2024-01-30T08:40:15;9.70;99.90
23803;DHT22;12082;51.786;6.018;2024-01-30T08:42:41;9.80;99.90
23803;DHT22;12082;51.786;6.018;2024-01-30T08:45:07;9.80;99.90
23803;DHT22;12082;51.786;6.018;2024-01-30T08:47:33;10.00;99.90
23803;DHT22;12082;51.786;6.018;2024-01-30T08:49:59;9.90;99.90
23803;DHT22;12082;51.786;6.018;2024-01-30T08:52:24;10.00;99.90
23803;DHT22;12082;51.786;6.018;2024-01-30T08:54:50;10.00;99.90
23803;DHT22;12082;51.786;6.018;2024-01-30T08:57:15;10.10;99.90
23803;DHT22;12082;51.786;6.018;2024-01-30T08:59:41;10.00;99.90
23803;DHT22;12082;51.786;6.018;2024-01-30T09:02:09;10.10;99.90
23803;DHT22;12082;51.786;6.018;2024-01-30T09:04:35;10.20;99.90
23803;DHT22;12082;51.786;6.018;2024-01-30T09:07:01;10.30;99.90
23803;DHT22;12082;51.786;6.018;2024-01-30T09:09:26;10.40;99.90
23803;DHT22;12082;51.786;6.018;2024-01-30T09:11:52;10.40;99.90
23803;DHT22;12082;51.786;6.018;2024-01-30T09:14:17;10.50;99.90
23803;DHT22;12082;51.786;6.018;2024-01-30T09:16:46;10.70;99.90
23803;DHT22;12082;51.786;6.018;2024-01-30T09:19:13;10.60;99.90
23803;DHT22;12082;51.786;6.018;2024-01-30T09:21:39;10.70;99.90
23803;DHT22;12082;51.786;6.018;2024-01-30T09:24:05;10.80;99.90
23803;DHT22;12082;51.786;6.018;2024-01-30T09:26:30;10.70;99.90
23803;DHT22;12082;51.786;6.018;2024-01-30T09:28:56;11.20;99.90
23803;DHT22;12082;51.786;6.018;2024-01-30T09:31:22;10.80;99.90
23803;DHT22;12082;51.786;6.018;2024-01-30T09:33:47;10.90;99.90
23803;DHT22;12082;51.786;6.018;2024-01-30T09:36:14;11.50;99.90
23803;DHT22;12082;51.786;6.018;2024-01-30T09:38:45;10.90;99.90
23803;DHT22;12082;51.786;6.018;2024-01-30T09:41:11;10.90;99.90
23803;DHT22;12082;51.786;6.018;2024-01-30T09:43:38;10.90;99.90
23803;DHT22;12082;51.786;6.018;2024-01-30T09:46:05;10.80;99.90
23803;DHT22;12082;51.786;6.018;2024-01-30T09:48:33;10.90;99.90
23803;DHT22;12082;51.786;6.018;2024-01-30T09:51:00;10.90;99.90
23803;DHT22;12082;51.786;6.018;2024-01-30T09:53:25;10.70;99.90
23803;DHT22;12082;51.786;6.018;2024-01-30T09:55:51;10.90;99.90
23803;DHT22;12082;51.786;6.018;2024-01-30T09:58:17;11.00;99.90
23803;DHT22;12082;51.786;6.018;2024-01-30T10:00:43;11.00;99.90
23803;DHT22;12082;51.786;6.018;2024-01-30T10:03:08;10.90;99.90
23803;DHT22;12082;51.786;6.018;2024-01-30T10:05:36;11.00;99.90
23803;DHT22;12082;51.786;6.018;2024-01-30T10:08:06;11.10;99.90
23803;DHT22;12082;51.786;6.018;2024-01-30T10:10:35;11.80;99.90
23803;DHT22;12082;51.786;6.018;2024-01-30T10:13:01;10.90;99.90
23803;DHT22;12082;51.786;6.018;2024-01-30T10:15:28;11.10;99.90
23803;DHT22;12082;51.786;6.018;2024-01-30T10:17:57;10.90;99.90
23803;DHT22;12082;51.786;6.018;2024-01-30T10:20:24;11.10;99.90
23803;DHT22;12082;51.786;6.018;2024-01-30T10:22:50;11.00;99.90
23803;DHT22;12082;51.786;6.018;2024-01-30T10:25:16;11.10;99.90
23803;DHT22;12082;51.786;6.018;2024-01-30T10:27:42;11.80;99.90
23803;DHT22;12082;51.786;6.018;2024-01-30T10:30:08;11.30;99.90
23803;DHT22;12082;51.786;6.018;2024-01-30T10:32:34;11.30;99.90
23803;DHT22;12082;51.786;6.018;2024-01-30T10:35:00;11.10;99.90
23803;DHT22;12082;51.786;6.018;2024-01-30T10:37:26;11.20;99.90
23803;DHT22;12082;51.786;6.018;2024-01-30T10:39:53;11.20;99.90
23803;DHT22;12082;51.786;6.018;2024-01-30T10:42:26;11.10;99.90
23803;DHT22;12082;51.786;6.018;2024-01-30T10:45:06;11.30;99.90
23803;DHT22;12082;51.786;6.018;2024-01-30T10:47:40;11.40;99.90
23803;DHT22;12082;51.786;6.018;2024-01-30T10:50:07;11.30;99.90
23803;DHT22;12082;51.786;6.018;2024-01-30T10:52:33;11.40;99.90
23803;DHT22;12082;51.786;6.018;2024-01-30T10:54:59;11.30;99.90
23803;DHT22;12082;51.786;6.018;2024-01-30T10:57:26;11.80;99.90
23803;DHT22;12082;51.786;6.018;2024-01-30T10:59:59;11.40;99.90
23803;DHT22;12082;51.786;6.018;2024-01-30T11:02:26;11.40;99.90
23803;DHT22;12082;51.786;6.018;2024-01-30T11:04:57;11.50;99.90
23803;DHT22;12082;51.786;6.018;2024-01-30T11:07:28;11.40;99.90
23803;DHT22;12082;51.786;6.018;2024-01-30T11:10:00;11.80;99.90
23803;DHT22;12082;51.786;6.018;2024-01-30T11:12:30;11.50;99.90
23803;DHT22;12082;51.786;6.018;2024-01-30T11:15:16;11.70;99.90
23803;DHT22;12082;51.786;6.018;2024-01-30T11:20:25;11.80;99.90
23803;DHT22;12082;51.786;6.018;2024-01-30T11:22:52;11.80;99.90
23803;DHT22;12082;51.786;6.018;2024-01-30T11:25:20;11.80;99.90
23803;DHT22;12082;51.786;6.018;2024-01-30T11:27:49;12.00;99.90
23803;DHT22;12082;51.786;6.018;2024-01-30T11:30:29;11.80;99.90
23803;DHT22;12082;51.786;6.018;2024-01-30T11:33:28;12.10;99.90
23803;DHT22;12082;51.786;6.018;2024-01-30T11:35:57;12.00;99.90
23803;DHT22;12082;51.786;6.018;2024-01-30T11:38:23;11.90;99.90
23803;DHT22;12082;51.786;6.018;2024-01-30T11:40:51;12.00;99.90
23803;DHT22;12082;51.786;6.018;2024-01-30T11:43:18;12.00;99.90
23803;DHT22;12082;51.786;6.018;2024-01-30T11:45:44;11.90;99.90
23803;DHT22;12082;51.786;6.018;2024-01-30T11:48:11;12.00;99.90
23803;DHT22;12082;51.786;6.018;2024-01-30T11:50:38;12.50;99.90
23803;DHT22;12082;51.786;6.018;2024-01-30T11:53:07;12.00;99.90
23803;DHT22;12082;51.786;6.018;2024-01-30T11:55:33;11.90;99.90
23803;DHT22;12082;51.786;6.018;2024-01-30T11:58:03;12.00;99.90
23803;DHT22;12082;51.786;6.018;2024-01-30T12:00:30;12.00;99.90
23803;DHT22;12082;51.786;6.018;2024-01-30T12:02:58;11.90;99.90
23803;DHT22;12082;51.786;6.018;2024-01-30T12:05:26;12.50;99.90
23803;DHT22;12082;51.786;6.018;2024-01-30T12:07:52;12.00;99.90
23803;DHT22;12082;51.786;6.018;2024-01-30T12:10:18;12.10;99.90
23803;DHT22;12082;51.786;6.018;2024-01-30T12:12:46;12.20;99.90
23803;DHT22;12082;51.786;6.018;2024-01-30T12:15:13;12.20;99.90
23803;DHT22;12082;51.786;6.018;2024-01-30T12:17:39;12.50;99.90
23803;DHT22;12082;51.786;6.018;2024-01-30T12:22:38;12.30;99.90
23803;DHT22;12082;51.786;6.018;2024-01-30T12:25:15;12.20;99.90
23803;DHT22;12082;51.786;6.018;2024-01-30T12:27:49;12.20;99.90
23803;DHT22;12082;51.786;6.018;2024-01-30T12:30:19;12.00;99.90
23803;DHT22;12082;51.786;6.018;2024-01-30T12:32:46;12.20;99.90
23803;DHT22;12082;51.786;6.018;2024-01-30T12:35:14;12.20;99.90
23803;DHT22;12082;51.786;6.018;2024-01-30T12:37:41;12.90;99.90
23803;DHT22;12082;51.786;6.018;2024-01-30T12:40:08;13.20;99.90
23803;DHT22;12082;51.786;6.018;2024-01-30T12:42:35;12.50;99.90
23803;DHT22;12082;51.786;6.018;2024-01-30T12:45:03;12.50;99.90
23803;DHT22;12082;51.786;6.018;2024-01-30T12:47:30;12.90;99.90
23803;DHT22;12082;51.786;6.018;2024-01-30T12:49:55;12.90;99.90
23803;DHT22;12082;51.786;6.018;2024-01-30T12:52:21;12.90;99.90
23803;DHT22;12082;51.786;6.018;2024-01-30T12:54:48;13.00;99.90
23803;DHT22;12082;51.786;6.018;2024-01-30T12:57:13;13.00;99.90
23803;DHT22;12082;51.786;6.018;2024-01-30T12:59:39;12.70;99.90
23803;DHT22;12082;51.786;6.018;2024-01-30T13:02:05;12.80;99.90
23803;DHT22;12082;51.786;6.018;2024-01-30T13:04:31;12.70;99.90
23803;DHT22;12082;51.786;6.018;2024-01-30T13:06:56;12.60;99.90
23803;DHT22;12082;51.786;6.018;2024-01-30T13:09:23;12.60;99.90
23803;DHT22;12082;51.786;6.018;2024-01-30T13:11:49;12.40;99.90
23803;DHT22;12082;51.786;6.018;2024-01-30T13:14:16;12.30;99.90
23803;DHT22;12082;51.786;6.018;2024-01-30T13:16:42;12.30;99.90
23803;DHT22;12082;51.786;6.018;2024-01-30T13:19:07;12.30;99.90
23803;DHT22;12082;51.786;6.018;2024-01-30T13:21:33;12.00;99.90
23803;DHT22;12082;51.786;6.018;2024-01-30T13:23:58;11.90;99.90
23803;DHT22;12082;51.786;6.018;2024-01-30T13:26:24;12.00;99.90
23803;DHT22;12082;51.786;6.018;2024-01-30T13:28:49;11.90;99.90
23803;DHT22;12082;51.786;6.018;2024-01-30T13:31:16;11.90;99.90
23803;DHT22;12082;51.786;6.018;2024-01-30T13:33:42;11.80;99.90
23803;DHT22;12082;51.786;6.018;2024-01-30T13:36:09;11.80;99.90
23803;DHT22;12082;51.786;6.018;2024-01-30T13:38:35;11.90;99.90
23803;DHT22;12082;51.786;6.018;2024-01-30T13:41:01;11.80;99.90
23803;DHT22;12082;51.786;6.018;2024-01-30T13:43:27;11.80;99.90
23803;DHT22;12082;51.786;6.018;2024-01-30T13:45:52;11.80;99.90
23803;DHT22;12082;51.786;6.018;2024-01-30T13:48:18;11.90;99.90
23803;DHT22;12082;51.786;6.018;2024-01-30T13:50:44;11.90;99.90
23803;DHT22;12082;51.786;6.018;2024-01-30T13:53:10;11.90;99.90
23803;DHT22;12082;51.786;6.018;2024-01-30T13:55:36;11.70;99.90
23803;DHT22;12082;51.786;6.018;2024-01-30T13:58:01;11.60;99.90
23803;DHT22;12082;51.786;6.018;2024-01-30T14:00:27;11.40;99.90
23803;DHT22;12082;51.786;6.018;2024-01-30T14:02:52;11.20;99.90
23803;DHT22;12082;51.786;6.018;2024-01-30T14:05:20;11.20;99.90
23803;DHT22;12082;51.786;6.018;2024-01-30T14:07:47;11.10;99.90
23803;DHT22;12082;51.786;6.018;2024-01-30T14:10:12;11.10;99.90
23803;DHT22;12082;51.786;6.018;2024-01-30T14:12:38;11.20;99.90
23803;DHT22;12082;51.786;6.018;2024-01-30T14:15:04;11.10;99.90
23803;DHT22;12082;51.786;6.018;2024-01-30T14:17:30;11.10;99.90
23803;DHT22;12082;51.786;6.018;2024-01-30T14:19:55;11.00;99.90
23803;DHT22;12082;51.786;6.018;2024-01-30T14:22:21;10.90;99.90
23803;DHT22;12082;51.786;6.018;2024-01-30T14:24:48;10.80;99.90
23803;DHT22;12082;51.786;6.018;2024-01-30T14:27:13;10.80;99.90
23803;DHT22;12082;51.786;6.018;2024-01-30T14:29:39;10.80;99.90
23803;DHT22;12082;51.786;6.018;2024-01-30T14:32:05;10.70;99.90
23803;DHT22;12082;51.786;6.018;2024-01-30T14:34:30;10.70;99.90
23803;DHT22;12082;51.786;6.018;2024-01-30T14:36:56;10.70;99.90
23803;DHT22;12082;51.786;6.018;2024-01-30T14:39:22;10.50;99.90
23803;DHT22;12082;51.786;6.018;2024-01-30T14:41:47;10.90;99.90
23803;DHT22;12082;51.786;6.018;2024-01-30T14:44:13;10.40;99.90
23803;DHT22;12082;51.786;6.018;2024-01-30T14:46:39;10.50;99.90
23803;DHT22;12082;51.786;6.018;2024-01-30T14:49:05;10.40;99.90
23803;DHT22;12082;51.786;6.018;2024-01-30T14:51:31;10.30;99.90
23803;DHT22;12082;51.786;6.018;2024-01-30T14:53:58;10.30;99.90
23803;DHT22;12082;51.786;6.018;2024-01-30T14:56:24;10.30;99.90
23803;DHT22;12082;51.786;6.018;2024-01-30T14:58:50;10.50;99.90
23803;DHT22;12082;51.786;6.018;2024-01-30T15:01:15;10.10;99.90
23803;DHT22;12082;51.786;6.018;2024-01-30T15:03:41;9.90;99.90
23803;DHT22;12082;51.786;6.018;2024-01-30T15:06:08;9.90;99.90
23803;DHT22;12082;51.786;6.018;2024-01-30T15:08:34;9.80;99.90
23803;DHT22;12082;51.786;6.018;2024-01-30T15:11:00;10.10;99.90
23803;DHT22;12082;51.786;6.018;2024-01-30T15:13:25;9.50;99.90
23803;DHT22;12082;51.786;6.018;2024-01-30T15:15:51;9.50;99.90
23803;DHT22;12082;51.786;6.018;2024-01-30T15:18:16;9.50;99.90
23803;DHT22;12082;51.786;6.018;2024-01-30T15:20:42;9.40;99.90
23803;DHT22;12082;51.786;6.018;2024-01-30T15:23:08;9.40;99.90
23803;DHT22;12082;51.786;6.018;2024-01-30T15:25:33;9.40;99.90
23803;DHT22;12082;51.786;6.018;2024-01-30T15:27:59;9.40;99.90
23803;DHT22;12082;51.786;6.018;2024-01-30T15:30:24;9.40;99.90
23803;DHT22;12082;51.786;6.018;2024-01-30T15:32:50;9.40;99.90
23803;DHT22;12082;51.786;6.018;2024-01-30T15:35:16;9.40;99.90
23803;DHT22;12082;51.786;6.018;2024-01-30T15:37:42;9.30;99.90
23803;DHT22;12082;51.786;6.018;2024-01-30T15:40:08;9.30;99.90